createdAt,value
2023-10-13T00:01:31.727Z,99712.03
2023-10-13T00:04:00.251Z,99706.63
2023-10-13T00:06:28.168Z,99712.19
2023-10-13T00:08:55.845Z,99709.94
2023-10-13T00:11:23.825Z,99724.59
2023-10-13T00:13:51.436Z,99723.28
2023-10-13T00:16:19.640Z,99722.22
2023-10-13T00:18:48.260Z,99724.94
2023-10-13T00:21:16.235Z,99718.72
2023-10-13T00:23:45.425Z,99712.37
2023-10-13T00:26:13.473Z,99721.16
2023-10-13T00:28:41.879Z,99720.88
2023-10-13T00:31:09.619Z,99711.78
2023-10-13T00:33:38.752Z,99724.53
2023-10-13T00:36:06.861Z,99721.19
2023-10-13T00:38:34.647Z,99723.12
2023-10-13T00:41:02.471Z,99719.81
2023-10-13T00:43:30.175Z,99721.25
2023-10-13T00:45:59.200Z,99721.91
2023-10-13T00:48:30.061Z,99720.94
2023-10-13T00:50:58.740Z,99717.44
2023-10-13T00:53:26.652Z,99717.94
2023-10-13T00:55:54.592Z,99716.81
2023-10-13T00:58:22.983Z,99706.19
2023-10-13T01:00:51.023Z,99711.59
2023-10-13T01:03:19.137Z,99713.00
2023-10-13T01:05:46.835Z,99705.72
2023-10-13T01:08:14.390Z,99704.59
2023-10-13T01:10:42.669Z,99705.38
2023-10-13T01:13:10.426Z,99709.53
2023-10-13T01:15:38.034Z,99705.88
2023-10-13T01:18:12.657Z,99713.13
2023-10-13T01:20:40.873Z,99698.53
2023-10-13T01:23:12.605Z,99700.16
2023-10-13T01:25:40.263Z,99707.91
2023-10-13T01:28:08.265Z,99699.94
2023-10-13T01:30:35.995Z,99696.94
2023-10-13T01:33:04.032Z,99696.78
2023-10-13T01:35:32.118Z,99702.03
2023-10-13T01:38:00.175Z,99705.13
2023-10-13T01:40:27.821Z,99710.66
2023-10-13T01:42:55.842Z,99705.38
2023-10-13T01:45:23.587Z,99708.94
2023-10-13T01:47:51.304Z,99703.47
2023-10-13T01:50:19.190Z,99708.50
2023-10-13T01:52:46.740Z,99718.03
2023-10-13T01:55:15.003Z,99713.88
2023-10-13T01:57:43.154Z,99707.41
2023-10-13T02:00:11.350Z,99701.97
2023-10-13T02:02:39.812Z,99714.00
2023-10-13T02:05:08.233Z,99717.19
2023-10-13T02:07:36.418Z,99726.09
2023-10-13T02:10:04.237Z,99713.53
2023-10-13T02:12:32.355Z,99706.09
2023-10-13T02:15:00.235Z,99710.28
2023-10-13T02:17:27.965Z,99710.94
2023-10-13T02:19:55.992Z,99713.31
2023-10-13T02:22:23.665Z,99704.53
2023-10-13T02:24:51.377Z,99707.91
2023-10-13T02:27:19.319Z,99716.41
2023-10-13T02:29:50.639Z,99715.31
2023-10-13T02:32:19.677Z,99707.41
2023-10-13T02:34:48.219Z,99699.94
2023-10-13T02:37:15.856Z,99712.16
2023-10-13T02:39:43.494Z,99706.59
2023-10-13T02:42:11.749Z,99704.37
2023-10-13T02:44:39.739Z,99705.16
2023-10-13T02:47:07.399Z,99704.37
2023-10-13T02:49:35.448Z,99700.62
2023-10-13T02:52:03.074Z,99710.84
2023-10-13T02:54:30.708Z,99715.03
2023-10-13T02:56:59.456Z,99724.28
2023-10-13T02:59:28.066Z,99720.78
2023-10-13T03:01:55.781Z,99731.00
2023-10-13T03:04:23.752Z,99724.31
2023-10-13T03:06:51.420Z,99730.28
2023-10-13T03:09:19.430Z,99737.62
2023-10-13T03:11:51.523Z,99737.97
2023-10-13T03:14:20.478Z,99747.22
2023-10-13T03:16:49.071Z,99753.91
2023-10-13T03:19:16.791Z,99746.59
2023-10-13T03:21:44.493Z,99741.50
2023-10-13T03:24:12.354Z,99749.13
2023-10-13T03:26:40.191Z,99739.44
2023-10-13T03:29:07.784Z,99742.91
2023-10-13T03:31:35.927Z,99740.69
2023-10-13T03:34:05.541Z,99740.69
2023-10-13T03:36:33.219Z,99727.66
2023-10-13T03:39:01.146Z,99726.06
2023-10-13T03:41:28.895Z,99734.00
2023-10-13T03:43:56.656Z,99734.66
2023-10-13T03:46:24.655Z,99740.09
2023-10-13T03:48:52.269Z,99735.06
2023-10-13T03:51:20.025Z,99733.00
2023-10-13T03:53:48.192Z,99726.66
2023-10-13T03:56:15.923Z,99719.47
2023-10-13T03:58:43.783Z,99719.13
2023-10-13T04:01:11.846Z,99716.28
2023-10-13T04:03:39.868Z,99721.25
2023-10-13T04:06:07.760Z,99707.47
2023-10-13T04:08:35.594Z,99705.41
2023-10-13T04:11:03.542Z,99708.81
2023-10-13T04:13:31.144Z,99696.13
2023-10-13T04:16:00.837Z,99694.50
2023-10-13T04:18:28.710Z,99708.41
2023-10-13T04:20:56.448Z,99698.84
2023-10-13T04:23:24.060Z,99683.75
2023-10-13T04:25:52.057Z,99672.81
2023-10-13T04:28:19.673Z,99678.66
2023-10-13T04:30:49.229Z,99682.75
2023-10-13T04:33:17.176Z,99682.44
2023-10-13T04:35:44.879Z,99685.09
2023-10-13T04:38:12.542Z,99680.13
2023-10-13T04:40:42.480Z,99672.25
2023-10-13T04:43:10.163Z,99669.41
2023-10-13T04:45:37.783Z,99678.28
2023-10-13T04:48:06.332Z,99674.59
2023-10-13T04:50:34.096Z,99661.41
2023-10-13T04:53:01.658Z,99674.59
2023-10-13T04:55:29.766Z,99696.34
2023-10-13T04:57:57.574Z,99696.59
2023-10-13T05:00:25.361Z,99705.69
2023-10-13T05:02:53.518Z,99703.31
2023-10-13T05:05:21.320Z,99732.25
2023-10-13T05:07:49.420Z,99732.25
2023-10-13T05:10:19.126Z,99748.41
2023-10-13T05:12:47.306Z,99735.25
2023-10-13T05:15:15.054Z,99717.78
2023-10-13T05:17:43.215Z,99702.00
2023-10-13T05:20:11.220Z,99706.16
2023-10-13T05:22:39.034Z,99692.03
2023-10-13T05:25:09.822Z,99699.84
2023-10-13T05:27:37.657Z,99712.94
2023-10-13T05:30:06.523Z,99746.72
2023-10-13T05:32:34.855Z,99748.81
2023-10-13T05:35:02.519Z,99736.09
2023-10-13T05:37:30.372Z,99742.72
2023-10-13T05:39:58.454Z,99746.53
2023-10-13T05:42:26.176Z,99765.31
2023-10-13T05:44:54.114Z,99769.62
2023-10-13T05:47:22.323Z,99743.66
2023-10-13T05:49:50.112Z,99733.94
2023-10-13T05:52:17.871Z,99762.09
2023-10-13T05:54:48.710Z,99743.59
2023-10-13T05:57:16.323Z,99744.66
2023-10-13T05:59:44.034Z,99735.66
2023-10-13T06:02:12.392Z,99741.47
2023-10-13T06:04:40.473Z,99754.53
2023-10-13T06:07:08.150Z,99776.12
2023-10-13T06:09:35.820Z,99781.22
2023-10-13T06:12:04.023Z,99786.72
2023-10-13T06:14:31.671Z,99821.59
2023-10-13T06:17:00.059Z,99797.78
2023-10-13T06:19:28.057Z,99788.69
2023-10-13T06:21:55.728Z,99782.78
2023-10-13T06:24:23.638Z,99776.28
2023-10-13T06:26:51.669Z,99792.84
2023-10-13T06:29:19.561Z,99790.22
2023-10-13T06:31:47.628Z,99802.44
2023-10-13T06:34:15.760Z,99801.09
2023-10-13T06:36:43.449Z,99802.63
2023-10-13T06:39:11.135Z,99803.06
2023-10-13T06:41:39.159Z,99809.87
2023-10-13T06:44:08.995Z,99827.34
2023-10-13T06:46:36.740Z,99828.25
2023-10-13T06:49:04.812Z,99833.81
2023-10-13T06:51:32.901Z,99830.44
2023-10-13T06:54:00.885Z,99838.09
2023-10-13T06:56:28.915Z,99845.97
2023-10-13T06:58:57.350Z,99855.56
2023-10-13T07:01:25.247Z,99853.19
2023-10-13T07:03:53.403Z,99856.09
2023-10-13T07:06:24.105Z,99859.13
2023-10-13T07:08:51.850Z,99853.63
2023-10-13T07:11:25.471Z,99849.81
2023-10-13T07:13:53.309Z,99858.28
2023-10-13T07:16:29.919Z,99873.25
2023-10-13T07:18:58.216Z,99868.03
2023-10-13T07:21:26.400Z,99876.41
2023-10-13T07:23:54.193Z,99878.50
2023-10-13T07:26:21.837Z,99879.09
2023-10-13T07:28:49.918Z,99878.75
2023-10-13T07:31:17.810Z,99893.78
2023-10-13T07:33:45.604Z,99899.09
2023-10-13T07:36:14.070Z,99894.00
2023-10-13T07:38:41.869Z,99884.81
2023-10-13T07:41:10.484Z,99868.94
2023-10-13T07:43:38.717Z,99863.59
2023-10-13T07:46:06.741Z,99868.78
2023-10-13T07:48:34.771Z,99882.25
2023-10-13T07:51:08.358Z,99880.25
2023-10-13T07:53:36.112Z,99873.06
2023-10-13T07:56:04.481Z,99857.84
2023-10-13T07:58:32.849Z,99862.28
2023-10-13T08:01:01.262Z,99860.28
2023-10-13T08:03:29.628Z,99858.16
2023-10-13T08:05:57.481Z,99885.03
2023-10-13T08:08:25.841Z,99883.78
2023-10-13T08:10:54.047Z,99881.47
2023-10-13T08:13:21.813Z,99875.94
2023-10-13T08:15:49.777Z,99871.72
2023-10-13T08:18:17.917Z,99871.94
2023-10-13T08:20:45.679Z,99867.78
2023-10-13T08:23:13.399Z,99877.13
2023-10-13T08:25:42.298Z,99877.47
2023-10-13T08:28:09.938Z,99873.84
2023-10-13T08:30:37.655Z,99871.13
2023-10-13T08:33:05.619Z,99873.63
2023-10-13T08:35:33.482Z,99864.94
2023-10-13T08:38:11.404Z,99866.09
2023-10-13T08:40:50.069Z,99871.28
2023-10-13T08:43:17.700Z,99859.53
2023-10-13T08:45:45.382Z,99854.91
2023-10-13T08:48:14.457Z,99866.56
2023-10-13T08:50:47.136Z,99868.56
2023-10-13T08:53:24.299Z,99859.06
2023-10-13T08:55:52.199Z,99871.31
2023-10-13T08:58:20.293Z,99863.50
2023-10-13T09:00:48.834Z,99864.19
2023-10-13T09:03:17.102Z,99864.16
2023-10-13T09:05:45.982Z,99872.00
2023-10-13T09:08:13.860Z,99869.03
2023-10-13T09:10:41.578Z,99875.16
2023-10-13T09:13:09.622Z,99881.50
2023-10-13T09:15:37.323Z,99882.41
2023-10-13T09:18:05.253Z,99884.69
2023-10-13T09:20:33.389Z,99885.91
2023-10-13T09:23:09.351Z,99885.69
2023-10-13T09:25:41.472Z,99875.94
2023-10-13T09:28:14.341Z,99872.44
2023-10-13T09:30:52.856Z,99886.72
2023-10-13T09:33:21.814Z,99875.75
2023-10-13T09:35:50.048Z,99880.94
2023-10-13T09:38:18.189Z,99877.88
2023-10-13T09:40:46.288Z,99873.00
2023-10-13T09:43:14.428Z,99874.59
2023-10-13T09:45:42.963Z,99883.00
2023-10-13T09:48:16.753Z,99884.31
2023-10-13T09:50:48.000Z,99876.53
2023-10-13T09:53:16.097Z,99883.75
2023-10-13T09:55:53.165Z,99876.19
2023-10-13T09:58:22.630Z,99876.09
2023-10-13T10:00:53.252Z,99879.25
2023-10-13T10:03:24.616Z,99872.47
2023-10-13T10:06:03.006Z,99873.81
2023-10-13T10:08:31.961Z,99873.56
2023-10-13T10:11:51.474Z,99878.56
2023-10-13T10:14:24.958Z,99870.38
2023-10-13T10:17:05.797Z,99863.97
2023-10-13T10:19:34.946Z,99865.97
2023-10-13T10:22:05.974Z,99855.22
2023-10-13T10:24:34.073Z,99855.84
2023-10-13T10:27:01.710Z,99847.03
2023-10-13T10:29:29.790Z,99841.72
2023-10-13T10:31:58.022Z,99850.25
2023-10-13T10:34:31.723Z,99832.56
2023-10-13T10:37:01.282Z,99832.06
2023-10-13T10:39:38.031Z,99833.53
2023-10-13T10:42:13.701Z,99821.50
2023-10-13T10:44:42.141Z,99825.87
2023-10-13T10:47:14.810Z,99820.53
2023-10-13T10:49:43.066Z,99824.06
2023-10-13T10:52:11.825Z,99825.84
2023-10-13T10:54:39.616Z,99817.59
2023-10-13T10:57:07.370Z,99815.53
2023-10-13T10:59:35.921Z,99818.50
2023-10-13T11:02:03.701Z,99814.03
2023-10-13T11:04:31.413Z,99816.13
2023-10-13T11:07:00.181Z,99819.34
2023-10-13T11:09:27.803Z,99813.88
2023-10-13T11:11:55.697Z,99811.41
2023-10-13T11:14:28.337Z,99807.16
2023-10-13T11:16:57.786Z,99810.56
2023-10-13T11:19:36.695Z,99806.56
2023-10-13T11:22:31.074Z,99807.84
2023-10-13T11:25:00.662Z,99812.31
2023-10-13T11:27:33.284Z,99801.94
2023-10-13T11:30:01.289Z,99803.13
2023-10-13T11:32:29.128Z,99796.00
2023-10-13T11:37:24.722Z,99794.03
2023-10-13T11:39:52.501Z,99791.50
2023-10-13T11:42:20.723Z,99789.91
2023-10-13T11:44:50.085Z,99789.56
2023-10-13T11:47:17.970Z,99792.75
2023-10-13T11:49:45.904Z,99794.28
2023-10-13T11:52:15.851Z,99785.03
2023-10-13T11:54:44.811Z,99792.22
2023-10-13T11:57:12.655Z,99790.59
2023-10-13T11:59:40.727Z,99793.88
2023-10-13T12:02:08.606Z,99785.66
2023-10-13T12:04:37.490Z,99789.63
2023-10-13T12:07:05.276Z,99782.94
2023-10-13T12:09:32.975Z,99772.53
2023-10-13T12:12:01.138Z,99770.63
2023-10-13T12:14:28.993Z,99771.75
2023-10-13T12:16:57.581Z,99769.81
2023-10-13T12:19:26.351Z,99771.34
2023-10-13T12:21:58.446Z,99776.97
2023-10-13T12:24:28.868Z,99776.56
2023-10-13T12:26:56.648Z,99775.25
2023-10-13T12:29:25.269Z,99768.06
2023-10-13T12:31:53.751Z,99761.41
2023-10-13T12:34:21.675Z,99760.19
2023-10-13T12:36:49.498Z,99763.41
2023-10-13T12:39:17.593Z,99759.84
2023-10-13T12:41:45.277Z,99760.34
2023-10-13T12:44:13.014Z,99759.13
2023-10-13T12:46:41.282Z,99754.00
2023-10-13T12:49:09.503Z,99754.78
2023-10-13T12:51:37.731Z,99754.66
2023-10-13T12:54:23.651Z,99748.53
2023-10-13T12:57:26.196Z,99744.97
2023-10-13T13:00:08.685Z,99741.06
2023-10-13T13:02:38.487Z,99729.88
2023-10-13T13:05:15.340Z,99739.12
2023-10-13T13:07:45.708Z,99728.59
2023-10-13T13:10:21.390Z,99726.63
2023-10-13T13:12:51.325Z,99726.75
2023-10-13T13:15:23.997Z,99726.37
2023-10-13T13:17:55.570Z,99716.97
2023-10-13T13:20:26.673Z,99717.34
2023-10-13T13:22:55.186Z,99716.94
2023-10-13T13:25:27.421Z,99715.00
2023-10-13T13:27:57.252Z,99710.16
2023-10-13T13:30:26.414Z,99712.16
2023-10-13T13:32:54.591Z,99711.72
2023-10-13T13:35:25.551Z,99709.00
2023-10-13T13:37:54.715Z,99715.38
2023-10-13T13:40:25.707Z,99702.03
2023-10-13T13:43:08.754Z,99703.59
2023-10-13T13:45:37.212Z,99708.31
2023-10-13T13:48:21.041Z,99707.84
2023-10-13T13:50:51.246Z,99707.91
2023-10-13T13:53:21.518Z,99704.50
2023-10-13T13:55:49.265Z,99691.59
2023-10-13T13:58:20.191Z,99694.16
2023-10-13T14:00:48.783Z,99686.41
2023-10-13T14:03:51.371Z,99688.09
2023-10-13T14:06:21.861Z,99686.22
2023-10-13T14:09:14.846Z,99681.56
2023-10-13T14:11:43.002Z,99678.59
2023-10-13T14:14:16.922Z,99684.12
2023-10-13T14:16:44.803Z,99681.44
2023-10-13T14:19:13.116Z,99687.72
2023-10-13T14:21:40.953Z,99680.66
2023-10-13T14:24:10.898Z,99681.47
2023-10-13T14:26:39.014Z,99676.41
2023-10-13T14:29:07.920Z,99674.44
2023-10-13T14:31:36.625Z,99666.13
2023-10-13T14:34:04.690Z,99668.22
2023-10-13T14:36:32.262Z,99665.06
2023-10-13T14:39:00.179Z,99668.59
2023-10-13T14:41:28.265Z,99661.47
2023-10-13T14:43:57.300Z,99655.28
2023-10-13T14:46:25.135Z,99646.25
2023-10-13T14:48:53.609Z,99651.34
2023-10-13T14:51:21.623Z,99643.50
2023-10-13T14:53:51.909Z,99645.09
2023-10-13T14:56:21.485Z,99647.44
2023-10-13T14:58:49.214Z,99652.94
2023-10-13T15:01:18.453Z,99645.84
2023-10-13T15:03:50.734Z,99649.00
2023-10-13T15:06:19.444Z,99637.59
2023-10-13T15:08:48.401Z,99640.72
2023-10-13T15:11:16.121Z,99641.88
2023-10-13T15:13:43.765Z,99634.81
2023-10-13T15:16:22.797Z,99637.16
2023-10-13T15:18:52.576Z,99634.03
2023-10-13T15:21:24.306Z,99643.84
2023-10-13T15:23:51.984Z,99648.53
2023-10-13T15:26:20.595Z,99651.69
2023-10-13T15:28:48.726Z,99650.91
2023-10-13T15:31:17.305Z,99648.88
2023-10-13T15:33:51.877Z,99642.53
2023-10-13T15:36:19.632Z,99644.78
2023-10-13T15:38:47.591Z,99644.34
2023-10-13T15:41:21.272Z,99637.56
2023-10-13T15:43:49.437Z,99637.06
2023-10-13T15:47:13.364Z,99642.37
2023-10-13T15:49:14.511Z,99639.44
2023-10-13T15:51:43.286Z,99646.38
2023-10-13T15:54:11.997Z,99655.53
2023-10-13T15:56:39.786Z,99643.63
2023-10-13T15:59:07.517Z,99647.75
2023-10-13T16:01:35.536Z,99649.91
2023-10-13T16:04:03.716Z,99648.56
2023-10-13T16:06:31.667Z,99647.59
2023-10-13T16:08:59.932Z,99643.50
2023-10-13T16:11:28.108Z,99643.34
2023-10-13T16:13:55.887Z,99651.50
2023-10-13T16:16:28.876Z,99643.94
2023-10-13T16:18:58.573Z,99642.31
2023-10-13T16:21:27.863Z,99640.75
2023-10-13T16:23:55.608Z,99651.66
2023-10-13T16:26:26.209Z,99648.94
2023-10-13T16:28:53.877Z,99652.03
2023-10-13T16:31:21.872Z,99646.81
2023-10-13T16:33:50.771Z,99645.50
2023-10-13T16:36:19.133Z,99648.06
2023-10-13T16:38:47.402Z,99644.72
2023-10-13T16:41:18.534Z,99639.78
2023-10-13T16:43:48.601Z,99645.31
2023-10-13T16:46:16.547Z,99642.28
2023-10-13T16:48:46.320Z,99640.88
2023-10-13T16:51:14.525Z,99643.84
2023-10-13T16:53:49.047Z,99648.72
2023-10-13T16:56:17.304Z,99650.97
2023-10-13T16:58:45.991Z,99647.81
2023-10-13T17:01:14.637Z,99654.91
2023-10-13T17:03:46.655Z,99653.47
2023-10-13T17:06:14.686Z,99650.87
2023-10-13T17:08:42.429Z,99650.09
2023-10-13T17:11:14.282Z,99649.59
2023-10-13T17:13:44.333Z,99650.44
2023-10-13T17:16:16.054Z,99654.09
2023-10-13T17:18:45.294Z,99653.91
2023-10-13T17:21:24.179Z,99654.00
2023-10-13T17:23:55.343Z,99649.72
2023-10-13T17:26:24.283Z,99653.38
2023-10-13T17:28:52.386Z,99648.44
2023-10-13T17:31:20.252Z,99649.38
2023-10-13T17:33:48.315Z,99647.66
2023-10-13T17:36:16.556Z,99648.09
2023-10-13T17:38:44.338Z,99652.03
2023-10-13T17:41:13.053Z,99648.28
2023-10-13T17:43:41.596Z,99646.00
2023-10-13T17:46:10.737Z,99647.28
2023-10-13T17:48:39.289Z,99646.62
2023-10-13T17:51:08.200Z,99641.94
2023-10-13T17:53:36.672Z,99643.87
2023-10-13T17:56:12.614Z,99643.53
2023-10-13T17:58:41.252Z,99644.56
2023-10-13T18:01:16.007Z,99636.59
2023-10-13T18:03:54.741Z,99639.06
2023-10-13T18:06:23.653Z,99640.72
2023-10-13T18:08:56.451Z,99639.84
2023-10-13T18:11:25.873Z,99635.53
2023-10-13T18:13:53.633Z,99636.16
2023-10-13T18:16:24.694Z,99637.81
2023-10-13T18:18:52.310Z,99639.06
2023-10-13T18:21:19.952Z,99634.25
2023-10-13T18:23:51.107Z,99635.97
2023-10-13T18:26:18.755Z,99626.16
2023-10-13T18:28:49.179Z,99633.09
2023-10-13T18:31:16.956Z,99624.94
2023-10-13T18:33:44.668Z,99630.28
2023-10-13T18:36:12.885Z,99625.97
2023-10-13T18:38:41.251Z,99621.38
2023-10-13T18:41:09.035Z,99632.00
2023-10-13T18:43:36.606Z,99619.84
2023-10-13T18:46:04.433Z,99623.56
2023-10-13T18:48:32.071Z,99617.09
2023-10-13T18:50:59.973Z,99620.69
2023-10-13T18:53:27.511Z,99619.47
2023-10-13T18:55:55.289Z,99616.41
2023-10-13T18:58:23.118Z,99618.59
2023-10-13T19:00:51.048Z,99618.16
2023-10-13T19:03:18.649Z,99617.16
2023-10-13T19:05:46.427Z,99620.81
2023-10-13T19:08:14.238Z,99627.34
2023-10-13T19:10:41.855Z,99624.53
2023-10-13T19:13:09.529Z,99628.37
2023-10-13T19:15:37.779Z,99615.84
2023-10-13T19:18:05.627Z,99623.06
2023-10-13T19:20:33.374Z,99618.22
2023-10-13T19:23:01.288Z,99618.78
2023-10-13T19:25:28.993Z,99615.50
2023-10-13T19:27:56.520Z,99614.69
2023-10-13T19:30:24.410Z,99627.03
2023-10-13T19:32:52.523Z,99617.19
2023-10-13T19:35:20.420Z,99614.22
2023-10-13T19:37:48.386Z,99625.56
2023-10-13T19:40:15.911Z,99624.06
2023-10-13T19:42:43.558Z,99631.41
2023-10-13T19:45:11.575Z,99616.41
2023-10-13T19:47:40.375Z,99624.88
2023-10-13T19:50:08.807Z,99625.78
2023-10-13T19:52:36.539Z,99623.41
2023-10-13T19:55:04.770Z,99628.63
2023-10-13T19:57:34.917Z,99624.09
2023-10-13T20:00:03.909Z,99616.53
2023-10-13T20:02:32.291Z,99617.75
2023-10-13T20:05:00.287Z,99619.91
2023-10-13T20:07:27.878Z,99618.88
2023-10-13T20:09:55.845Z,99626.91
2023-10-13T20:12:23.619Z,99625.00
2023-10-13T20:14:51.333Z,99621.72
2023-10-13T20:17:19.489Z,99616.84
2023-10-13T20:19:47.088Z,99619.34
2023-10-13T20:22:14.866Z,99620.69
2023-10-13T20:24:43.056Z,99615.81
2023-10-13T20:27:10.789Z,99616.59
2023-10-13T20:29:38.531Z,99617.75
2023-10-13T20:32:06.604Z,99619.78
2023-10-13T20:34:34.195Z,99622.66
2023-10-13T20:37:01.830Z,99621.66
2023-10-13T20:39:29.961Z,99616.22
2023-10-13T20:41:58.602Z,99610.91
2023-10-13T20:44:27.009Z,99620.25
2023-10-13T20:46:55.622Z,99613.66
2023-10-13T20:49:24.162Z,99610.03
2023-10-13T20:51:55.244Z,99605.97
2023-10-13T20:54:23.330Z,99601.22
2023-10-13T20:56:51.037Z,99599.50
2023-10-13T20:59:18.600Z,99587.88
2023-10-13T21:02:07.215Z,99592.03
2023-10-13T21:04:36.776Z,99594.69
2023-10-13T21:07:04.897Z,99590.28
2023-10-13T21:09:32.630Z,99582.72
2023-10-13T21:12:00.471Z,99583.63
2023-10-13T21:14:28.422Z,99583.63
2023-10-13T21:16:56.103Z,99579.25
2023-10-13T21:19:24.073Z,99573.59
2023-10-13T21:21:52.157Z,99581.37
2023-10-13T21:24:19.873Z,99584.34
2023-10-13T21:26:47.484Z,99586.34
2023-10-13T21:29:15.520Z,99583.97
2023-10-13T21:31:43.275Z,99578.53
2023-10-13T21:34:11.217Z,99571.88
2023-10-13T21:36:39.386Z,99573.66
2023-10-13T21:39:07.124Z,99567.91
2023-10-13T21:41:34.801Z,99571.75
2023-10-13T21:44:02.745Z,99567.81
2023-10-13T21:46:30.420Z,99567.00
2023-10-13T21:48:58.450Z,99565.75
2023-10-13T21:51:26.503Z,99569.13
2023-10-13T21:53:54.080Z,99570.56
2023-10-13T21:56:23.202Z,99571.06
2023-10-13T21:58:51.574Z,99569.81
2023-10-13T22:01:19.343Z,99565.19
2023-10-13T22:03:51.308Z,99556.84
2023-10-13T22:06:19.949Z,99559.09
2023-10-13T22:08:48.494Z,99563.41
2023-10-13T22:11:16.162Z,99558.06
2023-10-13T22:13:43.817Z,99556.41
2023-10-13T22:16:11.855Z,99557.22
2023-10-13T22:18:40.814Z,99554.34
2023-10-13T22:21:09.561Z,99548.03
2023-10-13T22:23:37.974Z,99550.22
2023-10-13T22:26:05.588Z,99548.25
2023-10-13T22:28:33.225Z,99555.19
2023-10-13T22:31:01.338Z,99545.81
2023-10-13T22:33:29.140Z,99548.53
2023-10-13T22:35:56.887Z,99548.53
2023-10-13T22:38:24.780Z,99548.31
2023-10-13T22:40:52.365Z,99541.31
2023-10-13T22:43:20.094Z,99544.69
2023-10-13T22:45:48.145Z,99546.09
2023-10-13T22:48:16.050Z,99546.59
2023-10-13T22:50:43.757Z,99540.81
2023-10-13T22:53:11.747Z,99541.59
2023-10-13T22:55:39.387Z,99549.59
2023-10-13T22:58:07.036Z,99543.06
2023-10-13T23:00:34.958Z,99543.22
2023-10-13T23:03:02.675Z,99544.97
2023-10-13T23:05:30.396Z,99544.00
2023-10-13T23:07:58.909Z,99538.09
2023-10-13T23:10:26.715Z,99533.53
2023-10-13T23:12:54.363Z,99539.03
2023-10-13T23:15:22.277Z,99538.44
2023-10-13T23:17:49.864Z,99538.00
2023-10-13T23:20:17.606Z,99535.25
2023-10-13T23:22:45.640Z,99539.41
2023-10-13T23:25:13.425Z,99533.53
2023-10-13T23:27:41.125Z,99531.34
2023-10-13T23:30:09.467Z,99533.19
2023-10-13T23:32:37.180Z,99527.00
2023-10-13T23:35:05.093Z,99531.75
2023-10-13T23:37:33.500Z,99528.59
2023-10-13T23:40:01.461Z,99526.50
2023-10-13T23:42:29.206Z,99517.31
2023-10-13T23:44:57.104Z,99523.84
2023-10-13T23:47:24.874Z,99511.31
2023-10-13T23:49:52.562Z,99513.31
2023-10-13T23:52:20.488Z,99500.72
2023-10-13T23:54:48.242Z,99496.75
2023-10-13T23:57:15.955Z,99485.78
2023-10-13T23:59:43.942Z,99489.41
